Terminal Aerodrome Forecast
Issued by NWS Wichita, KS

Home | Current Version | Previous Version | Text Only | Print | Product List | Glossary Off
Versions: 1 2 3 4 5 6 7 8 9 10 11 12 13 14 15 16 17 18 19 20 21

959
FTUS43 KICT 162320
TAFICT
TAF
KICT 162320Z 1700/1724 15012KT P6SM OVC035
     FM170300 16013KT P6SM OVC025
     FM170600 17013G20KT 4SM -DZ OVC003
     FM171300 18015G23KT P6SM OVC007
     FM171600 20013G24KT P6SM BKN040
     FM171800 20013G24KT P6SM SCT070=

USA.gov is the U.S. government's official web portal to all federal, state and local government web resources and services.